Maersk Essen — V7UQ8 — position and weather

sailwx.info

Track history (hours):
 
Tides and Currents Weather Stations Pressure Air Temp Water Temp Dewpoint Dewpoint Depression Visibility Wind Speed Wind Dir Waves Ship Positions

Maersk Essen

Last reported at 2016-Feb-14 03:32 UTC. Time now 2016-Feb-14 03:57 UTC.
Position N 49°28' E 000°09'.

Length 367 m; draft 15 m.

Type: Ship (hazmat cat A). MMSI: 538004007.

Date/timePositionNaut miles runAvg speedWind from/ knotsBaromVisibWave heightAir tempDewpointWater temp
2016-Feb-14 03:32N 49°28' E 000°09'0 0.0
2016-Feb-14 02:32N 49°28' E 000°09'0 0.0
2016-Feb-14 01:32N 49°28' E 000°09'0 0.0
2016-Feb-14 00:32N 49°28' E 000°09'0 0.0
2016-Feb-13 23:32N 49°28' E 000°09'0 0.0
2016-Feb-13 22:32N 49°28' E 000°09'0 0.0
2016-Feb-13 21:32N 49°28' E 000°09'0 0.0
2016-Feb-13 20:32N 49°28' E 000°09'0 0.0
2016-Feb-13 19:32N 49°28' E 000°09'0 0.0
2016-Feb-13 18:32N 49°28' E 000°09'0 0.0
2016-Feb-13 17:32N 49°28' E 000°09'0 0.0
2016-Feb-13 16:32N 49°28' E 000°09'0 0.0
2016-Feb-13 15:32N 49°28' E 000°09'0 0.0
2016-Feb-13 14:32N 49°28' E 000°09'0 0.0
2016-Feb-13 13:32N 49°28' E 000°09'4 4.3
2016-Feb-13 12:33N 49°30' E 000°03'1111.2
2016-Feb-13 11:33N 49°36' W 000°11'1110.7
2016-Feb-13 10:33N 49°47' W 000°08'1414.1
2016-Feb-13 09:34N 50°01' W 000°07'2512.4
2016-Feb-13 07:31N 50°26' W 000°02'1312.5
2016-Feb-13 06:31N 50°31' E 000°15'1313.2
2016-Feb-13 05:33N 50°35' E 000°34'2611.5
2016-Feb-13 03:20N 50°49' E 001°08'8 9.8
2016-Feb-13 02:32N 50°54' E 001°18'10 9.9
2016-Feb-13 01:33N 51°02' E 001°28'1212.0
2016-Feb-13 00:33N 51°10' E 001°41'1413.9
2016-Feb-12 23:34N 51°22' E 001°53'1414.2
2016-Feb-12 22:34N 51°33' E 002°07'1413.8
2016-Feb-12 21:33N 51°44' E 002°21'4511.1
2016-Feb-12 17:32N 52°04' E 003°26'1110.9
2016-Feb-12 16:33N 52°03' E 003°43'1010.5
2016-Feb-12 15:34N 52°00' E 003°60'3 3.3
2016-Feb-12 14:34N 51°58' E 004°03'0 0.0
2016-Feb-12 13:31N 51°57' E 004°03'0 0.0
2016-Feb-12 12:31N 51°57' E 004°03'0 0.0
2016-Feb-12 11:31N 51°57' E 004°03'0 0.0
2016-Feb-12 10:31N 51°57' E 004°03'0 0.0
2016-Feb-12 09:31N 51°57' E 004°03'0 0.0
2016-Feb-12 08:31N 51°57' E 004°03'0 0.0
2016-Feb-12 07:31N 51°57' E 004°03'0 0.0
2016-Feb-12 06:31N 51°57' E 004°03'0 0.0
2016-Feb-12 05:31N 51°57' E 004°03'0 0.0
2016-Feb-12 04:31N 51°57' E 004°03'0 0.0
2016-Feb-12 03:31N 51°57' E 004°03'0 0.0
2016-Feb-12 02:31N 51°57' E 004°03'0 0.0
2016-Feb-12 01:31N 51°57' E 004°03'0 0.0
2016-Feb-12 00:31N 51°57' E 004°03'0 0.0
2016-Feb-11 23:31N 51°57' E 004°03'0 0.0
2016-Feb-11 22:32N 51°57' E 004°03'0 0.0
2016-Feb-11 21:32N 51°57' E 004°03'0 0.0
2016-Feb-11 20:32N 51°57' E 004°03'0 0.0
2016-Feb-11 19:32N 51°57' E 004°03'0 0.0
2016-Feb-11 18:32N 51°57' E 004°03'0 0.0
2016-Feb-11 17:32N 51°57' E 004°03'0 0.0
2016-Feb-11 16:32N 51°57' E 004°03'0 0.0
2016-Feb-11 15:32N 51°57' E 004°03'0 0.0
2016-Feb-11 14:32N 51°57' E 004°03'0 0.3
2016-Feb-11 13:33N 51°58' E 004°03'2 1.6
2016-Feb-11 12:33N 51°59' E 004°03'10 9.8
2016-Feb-11 11:33N 51°59' E 003°47'7 7.0
2016-Feb-11 10:33N 51°58' E 003°36'5010.1
2016-Feb-11 05:33N 52°48' E 003°45'1212.1
2016-Feb-11 04:33N 52°57' E 003°58'1211.9
2016-Feb-11 03:33N 53°05' E 004°14'1313.2
2016-Feb-11 02:33N 53°15' E 004°28'1913.4
2016-Feb-11 01:06N 53°31' E 004°47'813.8
2016-Feb-11 00:33N 53°33' E 004°59'1413.7
2016-Feb-10 23:34N 53°38' E 005°20'1313.2
2016-Feb-10 22:34N 53°42' E 005°41'1212.2
2016-Feb-10 21:34N 53°46' E 006°01'1111.1
2016-Feb-10 20:34N 53°49' E 006°19'1010.1
2016-Feb-10 19:33N 53°51' E 006°36'1110.5
2016-Feb-10 18:33N 53°54' E 006°53'1111.5
2016-Feb-10 17:33N 53°57' E 007°12'1212.2
2016-Feb-10 16:33N 53°59' E 007°32'1110.5
2016-Feb-10 15:34N 53°53' E 007°47'1313.3
2016-Feb-10 14:33N 53°48' E 008°08'1615.8
2016-Feb-10 13:33N 53°37' E 008°28'2 2.0
2016-Feb-10 12:33N 53°36' E 008°31'0 0.0
2016-Feb-10 11:30N 53°36' E 008°31'0 0.0
2016-Feb-10 10:33N 53°36' E 008°31'0 0.0
2016-Feb-10 09:33N 53°36' E 008°31'0 0.0
2016-Feb-10 08:33N 53°36' E 008°31'0 0.0
2016-Feb-10 07:33N 53°36' E 008°31'0 0.0
2016-Feb-10 06:33N 53°36' E 008°31'0 0.0
2016-Feb-10 05:33N 53°36' E 008°31'0 0.0
2016-Feb-10 04:33N 53°36' E 008°31'0 0.0
2016-Feb-10 03:33N 53°36' E 008°31'0 0.0
2016-Feb-10 02:33N 53°36' E 008°31'0 0.0
2016-Feb-10 01:33N 53°36' E 008°31'0 0.0
2016-Feb-10 00:33N 53°36' E 008°31'0 0.0
2016-Feb-09 23:33N 53°36' E 008°31'0 0.0
2016-Feb-09 22:33N 53°36' E 008°31'0 0.0
2016-Feb-09 21:33N 53°36' E 008°31'0 0.0
2016-Feb-09 20:33N 53°36' E 008°31'0 0.0
2016-Feb-09 19:33N 53°36' E 008°31'0 0.0
2016-Feb-09 18:33N 53°36' E 008°31'0 0.0
2016-Feb-09 17:33N 53°36' E 008°31'0 0.0
2016-Feb-09 16:33N 53°36' E 008°31'0 0.0
2016-Feb-09 15:33N 53°36' E 008°31'0 0.0
2016-Feb-09 14:33N 53°36' E 008°31'0 0.0
2016-Feb-09 13:33N 53°36' E 008°31'0 0.0
2016-Feb-09 12:33N 53°36' E 008°31'0 0.0
2016-Feb-09 11:30N 53°36' E 008°31'0 0.0
2016-Feb-09 10:33N 53°36' E 008°31'0 0.0
2016-Feb-09 09:33N 53°36' E 008°31'0 0.0
2016-Feb-09 08:33N 53°36' E 008°31'0 0.0
2016-Feb-09 07:33N 53°36' E 008°31'0 0.0
2016-Feb-09 06:33N 53°36' E 008°31'0 0.0
2016-Feb-09 05:33N 53°36' E 008°31'0 0.0
2016-Feb-09 04:32N 53°36' E 008°31'0 0.0
2016-Feb-09 03:33N 53°36' E 008°31'0 0.0
2016-Feb-09 02:32N 53°36' E 008°31'0 0.0
2016-Feb-09 01:32N 53°36' E 008°31'0 0.0
2016-Feb-09 00:33N 53°36' E 008°31'0 0.0
2016-Feb-08 23:33N 53°36' E 008°31'0 0.0
2016-Feb-08 22:33N 53°36' E 008°31'0 0.0
2016-Feb-08 21:32N 53°36' E 008°31'0 0.0
2016-Feb-08 20:33N 53°36' E 008°31'0 0.0
2016-Feb-08 19:32N 53°36' E 008°31'0 0.0
2016-Feb-08 18:33N 53°36' E 008°31'0 0.0
2016-Feb-08 17:33N 53°36' E 008°31'0 0.0
2016-Feb-08 16:32N 53°36' E 008°31'0 0.0
2016-Feb-08 15:33N 53°36' E 008°31'0 0.0
2016-Feb-08 14:33N 53°36' E 008°31'0 0.0
2016-Feb-08 13:32N 53°36' E 008°31'0 0.0
2016-Feb-08 12:32N 53°36' E 008°31'0 0.0
2016-Feb-08 11:30N 53°36' E 008°31'0 0.0
2016-Feb-08 10:33N 53°36' E 008°31'0 0.0
2016-Feb-08 09:33N 53°36' E 008°31'0 0.0
2016-Feb-08 08:32N 53°36' E 008°31'0 0.0
2016-Feb-08 07:32N 53°36' E 008°31'0 0.0
2016-Feb-08 06:32N 53°36' E 008°31'0 0.0
2016-Feb-08 05:33N 53°36' E 008°31'0 0.0
2016-Feb-08 04:32N 53°36' E 008°31'0 0.0
2016-Feb-08 03:32N 53°36' E 008°31'0 0.0
2016-Feb-08 02:32N 53°36' E 008°31'0 0.0
2016-Feb-08 01:32N 53°36' E 008°31'0 0.0
2016-Feb-08 00:32N 53°36' E 008°31'0 0.0
2016-Feb-07 23:32N 53°36' E 008°31'1 0.8
2016-Feb-07 22:33N 53°35' E 008°31'1110.8
2016-Feb-07 21:33N 53°43' E 008°18'1717.0
2016-Feb-07 20:33N 53°52' E 007°54'7 7.2
2016-Feb-07 19:33N 53°53' E 007°42'7 7.0
2016-Feb-07 18:33N 53°53' E 007°30'1313.4
2016-Feb-07 17:33N 53°51' E 007°08'1817.9
2016-Feb-07 16:34N 53°48' E 006°38'1817.7
2016-Feb-07 15:33N 53°43' E 006°09'2020.2
2016-Feb-07 14:33N 53°37' E 005°36'2120.8
2016-Feb-07 13:33N 53°31' E 005°03'2120.7
2016-Feb-07 12:31N 53°16' E 004°36'2121.4
2016-Feb-07 11:33N 52°58' E 004°20'2120.9
2016-Feb-07 10:33N 52°40' E 004°02'2121.2
2016-Feb-07 09:33N 52°25' E 003°37'1817.9
2016-Feb-07 08:33N 52°08' E 003°35'1414.4
2016-Feb-07 07:33N 52°02' E 003°56'6 6.0
2016-Feb-07 06:33N 51°58' E 004°03'0 0.0
2016-Feb-07 05:32N 51°58' E 004°03'0 0.0
2016-Feb-07 04:32N 51°58' E 004°03'0 0.0
2016-Feb-07 03:32N 51°58' E 004°03'0 0.0
2016-Feb-07 02:32N 51°58' E 004°03'0 0.0
2016-Feb-07 01:32N 51°58' E 004°03'0 0.0
2016-Feb-07 00:32N 51°58' E 004°03'0 0.0
2016-Feb-06 23:32N 51°58' E 004°03'0 0.0
2016-Feb-06 22:32N 51°58' E 004°03'0 0.0
2016-Feb-06 21:32N 51°58' E 004°03'0 0.0
2016-Feb-06 20:32N 51°58' E 004°03'0 0.0
2016-Feb-06 19:32N 51°58' E 004°03'0 0.0
2016-Feb-06 18:32N 51°58' E 004°03'0 0.0
2016-Feb-06 17:32N 51°58' E 004°03'0 0.0
2016-Feb-06 16:32N 51°58' E 004°03'0 0.0
2016-Feb-06 15:32N 51°58' E 004°03'0 0.0
2016-Feb-06 14:32N 51°58' E 004°03'0 0.0
2016-Feb-06 13:32N 51°58' E 004°03'0 0.0
2016-Feb-06 12:32N 51°58' E 004°03'0 0.0
2016-Feb-06 11:32N 51°58' E 004°03'0 0.0
2016-Feb-06 10:32N 51°58' E 004°03'0 0.0
2016-Feb-06 09:32N 51°58' E 004°03'0 0.0
2016-Feb-06 08:32N 51°58' E 004°03'1 1.0
2016-Feb-06 07:33N 51°58' E 004°05'10 9.6
2016-Feb-06 06:33N 52°02' E 003°51'1211.6
2016-Feb-06 05:33N 51°58' E 003°33'2118.3
2016-Feb-06 04:24N 51°53' E 002°59'1820.6
2016-Feb-06 03:33N 51°53' E 002°31'2121.0
2016-Feb-06 02:33N 51°50' E 001°58'1514.9
2016-Feb-06 01:33N 51°52' E 001°34'1010.2
2016-Feb-06 00:34N 51°56' E 001°19'0 0.4
2016-Feb-05 23:34N 51°57' E 001°19'0 0.0
2016-Feb-05 22:31N 51°57' E 001°19'0 0.0
2016-Feb-05 21:31N 51°57' E 001°19'0 0.0
2016-Feb-05 20:31N 51°57' E 001°19'0 0.0
2016-Feb-05 19:31N 51°57' E 001°19'0 0.0
2016-Feb-05 18:31N 51°57' E 001°19'0 0.0
2016-Feb-05 17:31N 51°57' E 001°19'0 0.0
2016-Feb-05 16:31N 51°57' E 001°19'0 0.0
2016-Feb-05 15:31N 51°57' E 001°19'0 0.0
2016-Feb-05 14:31N 51°57' E 001°19'0 0.0
2016-Feb-05 13:31N 51°57' E 001°19'0 0.0
2016-Feb-05 12:31N 51°57' E 001°19'0 0.0
2016-Feb-05 11:31N 51°57' E 001°19'0 0.0
2016-Feb-05 10:31N 51°57' E 001°19'0 0.0
2016-Feb-05 09:31N 51°57' E 001°19'0 0.0
2016-Feb-05 08:31N 51°57' E 001°19'0 0.0
2016-Feb-05 07:31N 51°57' E 001°19'0 0.0
2016-Feb-05 06:31N 51°57' E 001°19'0 0.0
2016-Feb-05 05:31N 51°57' E 001°19'0 0.0
2016-Feb-05 04:31N 51°57' E 001°19'0 0.0
2016-Feb-05 03:31N 51°57' E 001°19'0 0.0
2016-Feb-05 02:31N 51°57' E 001°19'0 0.0
2016-Feb-05 01:31N 51°57' E 001°19'0 0.0
2016-Feb-05 00:31N 51°57' E 001°19'0 0.0
2016-Feb-04 23:31N 51°57' E 001°19'0 0.0
2016-Feb-04 22:31N 51°57' E 001°19'0 0.0
2016-Feb-04 21:31N 51°57' E 001°19'0 0.0
2016-Feb-04 20:31N 51°57' E 001°19'0 0.0
2016-Feb-04 19:31N 51°57' E 001°19'0 0.0
2016-Feb-04 18:31N 51°57' E 001°19'0 0.0
2016-Feb-04 17:31N 51°57' E 001°19'0 0.0
2016-Feb-04 16:31N 51°57' E 001°19'0 0.0
2016-Feb-04 15:31N 51°57' E 001°19'0 0.0
2016-Feb-04 14:31N 51°57' E 001°19'0 0.0
2016-Feb-04 13:31N 51°57' E 001°19'0 0.0
2016-Feb-04 12:31N 51°57' E 001°19'0 0.0
2016-Feb-04 11:31N 51°57' E 001°19'0 0.0
2016-Feb-04 10:31N 51°57' E 001°19'0 0.2
2016-Feb-04 09:31N 51°57' E 001°19'0 0.0
2016-Feb-04 08:31N 51°57' E 001°19'0 0.0
2016-Feb-04 07:31N 51°57' E 001°19'0 0.0
2016-Feb-04 06:31N 51°57' E 001°19'0 0.0
2016-Feb-04 05:31N 51°57' E 001°19'0 0.0
2016-Feb-04 04:31N 51°57' E 001°19'  
Track history (hours):
 
Tides and Currents Weather Stations Pressure Air Temp Water Temp Dewpoint Dewpoint Depression Visibility Wind Speed Wind Dir Waves Ship Positions

Maersk Essen

Last reported at 2016-Feb-14 03:32 UTC. Time now 2016-Feb-14 03:57 UTC.
Position N 49°28' E 000°09'.

Length 367 m; draft 15 m.

Type: Ship (hazmat cat A). MMSI: 538004007.

Date/timePositionNaut miles runAvg speedWind from/ knotsBaromVisibWave heightAir tempDewpointWater temp
2016-Feb-14 03:32N 49°28' E 000°09'0 0.0
2016-Feb-14 02:32N 49°28' E 000°09'0 0.0
2016-Feb-14 01:32N 49°28' E 000°09'0 0.0
2016-Feb-14 00:32N 49°28' E 000°09'0 0.0
2016-Feb-13 23:32N 49°28' E 000°09'0 0.0
2016-Feb-13 22:32N 49°28' E 000°09'0 0.0
2016-Feb-13 21:32N 49°28' E 000°09'0 0.0
2016-Feb-13 20:32N 49°28' E 000°09'0 0.0
2016-Feb-13 19:32N 49°28' E 000°09'0 0.0
2016-Feb-13 18:32N 49°28' E 000°09'0 0.0
2016-Feb-13 17:32N 49°28' E 000°09'0 0.0
2016-Feb-13 16:32N 49°28' E 000°09'0 0.0
2016-Feb-13 15:32N 49°28' E 000°09'0 0.0
2016-Feb-13 14:32N 49°28' E 000°09'0 0.0
2016-Feb-13 13:32N 49°28' E 000°09'4 4.3
2016-Feb-13 12:33N 49°30' E 000°03'1111.2
2016-Feb-13 11:33N 49°36' W 000°11'1110.7
2016-Feb-13 10:33N 49°47' W 000°08'1414.1
2016-Feb-13 09:34N 50°01' W 000°07'2512.4
2016-Feb-13 07:31N 50°26' W 000°02'1312.5
2016-Feb-13 06:31N 50°31' E 000°15'1313.2
2016-Feb-13 05:33N 50°35' E 000°34'2611.5
2016-Feb-13 03:20N 50°49' E 001°08'8 9.8
2016-Feb-13 02:32N 50°54' E 001°18'10 9.9
2016-Feb-13 01:33N 51°02' E 001°28'1212.0
2016-Feb-13 00:33N 51°10' E 001°41'1413.9
2016-Feb-12 23:34N 51°22' E 001°53'1414.2
2016-Feb-12 22:34N 51°33' E 002°07'1413.8
2016-Feb-12 21:33N 51°44' E 002°21'4511.1
2016-Feb-12 17:32N 52°04' E 003°26'1110.9
2016-Feb-12 16:33N 52°03' E 003°43'1010.5
2016-Feb-12 15:34N 52°00' E 003°60'3 3.3
2016-Feb-12 14:34N 51°58' E 004°03'0 0.0
2016-Feb-12 13:31N 51°57' E 004°03'0 0.0
2016-Feb-12 12:31N 51°57' E 004°03'0 0.0
2016-Feb-12 11:31N 51°57' E 004°03'0 0.0
2016-Feb-12 10:31N 51°57' E 004°03'0 0.0
2016-Feb-12 09:31N 51°57' E 004°03'0 0.0
2016-Feb-12 08:31N 51°57' E 004°03'0 0.0
2016-Feb-12 07:31N 51°57' E 004°03'0 0.0
2016-Feb-12 06:31N 51°57' E 004°03'0 0.0
2016-Feb-12 05:31N 51°57' E 004°03'0 0.0
2016-Feb-12 04:31N 51°57' E 004°03'0 0.0
2016-Feb-12 03:31N 51°57' E 004°03'0 0.0
2016-Feb-12 02:31N 51°57' E 004°03'0 0.0
2016-Feb-12 01:31N 51°57' E 004°03'0 0.0
2016-Feb-12 00:31N 51°57' E 004°03'0 0.0
2016-Feb-11 23:31N 51°57' E 004°03'0 0.0
2016-Feb-11 22:32N 51°57' E 004°03'0 0.0
2016-Feb-11 21:32N 51°57' E 004°03'0 0.0
2016-Feb-11 20:32N 51°57' E 004°03'0 0.0
2016-Feb-11 19:32N 51°57' E 004°03'0 0.0
2016-Feb-11 18:32N 51°57' E 004°03'0 0.0
2016-Feb-11 17:32N 51°57' E 004°03'0 0.0
2016-Feb-11 16:32N 51°57' E 004°03'0 0.0
2016-Feb-11 15:32N 51°57' E 004°03'0 0.0
2016-Feb-11 14:32N 51°57' E 004°03'0 0.3
2016-Feb-11 13:33N 51°58' E 004°03'2 1.6
2016-Feb-11 12:33N 51°59' E 004°03'10 9.8
2016-Feb-11 11:33N 51°59' E 003°47'7 7.0
2016-Feb-11 10:33N 51°58' E 003°36'5010.1
2016-Feb-11 05:33N 52°48' E 003°45'1212.1
2016-Feb-11 04:33N 52°57' E 003°58'1211.9
2016-Feb-11 03:33N 53°05' E 004°14'1313.2
2016-Feb-11 02:33N 53°15' E 004°28'1913.4
2016-Feb-11 01:06N 53°31' E 004°47'813.8
2016-Feb-11 00:33N 53°33' E 004°59'1413.7
2016-Feb-10 23:34N 53°38' E 005°20'1313.2
2016-Feb-10 22:34N 53°42' E 005°41'1212.2
2016-Feb-10 21:34N 53°46' E 006°01'1111.1
2016-Feb-10 20:34N 53°49' E 006°19'1010.1
2016-Feb-10 19:33N 53°51' E 006°36'1110.5
2016-Feb-10 18:33N 53°54' E 006°53'1111.5
2016-Feb-10 17:33N 53°57' E 007°12'1212.2
2016-Feb-10 16:33N 53°59' E 007°32'1110.5
2016-Feb-10 15:34N 53°53' E 007°47'1313.3
2016-Feb-10 14:33N 53°48' E 008°08'1615.8
2016-Feb-10 13:33N 53°37' E 008°28'2 2.0
2016-Feb-10 12:33N 53°36' E 008°31'0 0.0
2016-Feb-10 11:30N 53°36' E 008°31'0 0.0
2016-Feb-10 10:33N 53°36' E 008°31'0 0.0
2016-Feb-10 09:33N 53°36' E 008°31'0 0.0
2016-Feb-10 08:33N 53°36' E 008°31'0 0.0
2016-Feb-10 07:33N 53°36' E 008°31'0 0.0
2016-Feb-10 06:33N 53°36' E 008°31'0 0.0
2016-Feb-10 05:33N 53°36' E 008°31'0 0.0
2016-Feb-10 04:33N 53°36' E 008°31'0 0.0
2016-Feb-10 03:33N 53°36' E 008°31'0 0.0
2016-Feb-10 02:33N 53°36' E 008°31'0 0.0
2016-Feb-10 01:33N 53°36' E 008°31'0 0.0
2016-Feb-10 00:33N 53°36' E 008°31'0 0.0
2016-Feb-09 23:33N 53°36' E 008°31'0 0.0
2016-Feb-09 22:33N 53°36' E 008°31'0 0.0
2016-Feb-09 21:33N 53°36' E 008°31'0 0.0
2016-Feb-09 20:33N 53°36' E 008°31'0 0.0
2016-Feb-09 19:33N 53°36' E 008°31'0 0.0
2016-Feb-09 18:33N 53°36' E 008°31'0 0.0
2016-Feb-09 17:33N 53°36' E 008°31'0 0.0
2016-Feb-09 16:33N 53°36' E 008°31'0 0.0
2016-Feb-09 15:33N 53°36' E 008°31'0 0.0
2016-Feb-09 14:33N 53°36' E 008°31'0 0.0
2016-Feb-09 13:33N 53°36' E 008°31'0 0.0
2016-Feb-09 12:33N 53°36' E 008°31'0 0.0
2016-Feb-09 11:30N 53°36' E 008°31'0 0.0
2016-Feb-09 10:33N 53°36' E 008°31'0 0.0
2016-Feb-09 09:33N 53°36' E 008°31'0 0.0
2016-Feb-09 08:33N 53°36' E 008°31'0 0.0
2016-Feb-09 07:33N 53°36' E 008°31'0 0.0
2016-Feb-09 06:33N 53°36' E 008°31'0 0.0
2016-Feb-09 05:33N 53°36' E 008°31'0 0.0
2016-Feb-09 04:32N 53°36' E 008°31'0 0.0
2016-Feb-09 03:33N 53°36' E 008°31'0 0.0
2016-Feb-09 02:32N 53°36' E 008°31'0 0.0
2016-Feb-09 01:32N 53°36' E 008°31'0 0.0
2016-Feb-09 00:33N 53°36' E 008°31'0 0.0
2016-Feb-08 23:33N 53°36' E 008°31'0 0.0
2016-Feb-08 22:33N 53°36' E 008°31'0 0.0
2016-Feb-08 21:32N 53°36' E 008°31'0 0.0
2016-Feb-08 20:33N 53°36' E 008°31'0 0.0
2016-Feb-08 19:32N 53°36' E 008°31'0 0.0
2016-Feb-08 18:33N 53°36' E 008°31'0 0.0
2016-Feb-08 17:33N 53°36' E 008°31'0 0.0
2016-Feb-08 16:32N 53°36' E 008°31'0 0.0
2016-Feb-08 15:33N 53°36' E 008°31'0 0.0
2016-Feb-08 14:33N 53°36' E 008°31'0 0.0
2016-Feb-08 13:32N 53°36' E 008°31'0 0.0
2016-Feb-08 12:32N 53°36' E 008°31'0 0.0
2016-Feb-08 11:30N 53°36' E 008°31'0 0.0
2016-Feb-08 10:33N 53°36' E 008°31'0 0.0
2016-Feb-08 09:33N 53°36' E 008°31'0 0.0
2016-Feb-08 08:32N 53°36' E 008°31'0 0.0
2016-Feb-08 07:32N 53°36' E 008°31'0 0.0
2016-Feb-08 06:32N 53°36' E 008°31'0 0.0
2016-Feb-08 05:33N 53°36' E 008°31'0 0.0
2016-Feb-08 04:32N 53°36' E 008°31'0 0.0
2016-Feb-08 03:32N 53°36' E 008°31'0 0.0
2016-Feb-08 02:32N 53°36' E 008°31'0 0.0
2016-Feb-08 01:32N 53°36' E 008°31'0 0.0
2016-Feb-08 00:32N 53°36' E 008°31'0 0.0
2016-Feb-07 23:32N 53°36' E 008°31'1 0.8
2016-Feb-07 22:33N 53°35' E 008°31'1110.8
2016-Feb-07 21:33N 53°43' E 008°18'1717.0
2016-Feb-07 20:33N 53°52' E 007°54'7 7.2
2016-Feb-07 19:33N 53°53' E 007°42'7 7.0
2016-Feb-07 18:33N 53°53' E 007°30'1313.4
2016-Feb-07 17:33N 53°51' E 007°08'1817.9
2016-Feb-07 16:34N 53°48' E 006°38'1817.7
2016-Feb-07 15:33N 53°43' E 006°09'2020.2
2016-Feb-07 14:33N 53°37' E 005°36'2120.8
2016-Feb-07 13:33N 53°31' E 005°03'2120.7
2016-Feb-07 12:31N 53°16' E 004°36'2121.4
2016-Feb-07 11:33N 52°58' E 004°20'2120.9
2016-Feb-07 10:33N 52°40' E 004°02'2121.2
2016-Feb-07 09:33N 52°25' E 003°37'1817.9
2016-Feb-07 08:33N 52°08' E 003°35'1414.4
2016-Feb-07 07:33N 52°02' E 003°56'6 6.0
2016-Feb-07 06:33N 51°58' E 004°03'0 0.0
2016-Feb-07 05:32N 51°58' E 004°03'0 0.0
2016-Feb-07 04:32N 51°58' E 004°03'0 0.0
2016-Feb-07 03:32N 51°58' E 004°03'0 0.0
2016-Feb-07 02:32N 51°58' E 004°03'0 0.0
2016-Feb-07 01:32N 51°58' E 004°03'0 0.0
2016-Feb-07 00:32N 51°58' E 004°03'0 0.0
2016-Feb-06 23:32N 51°58' E 004°03'0 0.0
2016-Feb-06 22:32N 51°58' E 004°03'0 0.0
2016-Feb-06 21:32N 51°58' E 004°03'0 0.0
2016-Feb-06 20:32N 51°58' E 004°03'0 0.0
2016-Feb-06 19:32N 51°58' E 004°03'0 0.0
2016-Feb-06 18:32N 51°58' E 004°03'0 0.0
2016-Feb-06 17:32N 51°58' E 004°03'0 0.0
2016-Feb-06 16:32N 51°58' E 004°03'0 0.0
2016-Feb-06 15:32N 51°58' E 004°03'0 0.0
2016-Feb-06 14:32N 51°58' E 004°03'0 0.0
2016-Feb-06 13:32N 51°58' E 004°03'0 0.0
2016-Feb-06 12:32N 51°58' E 004°03'0 0.0
2016-Feb-06 11:32N 51°58' E 004°03'0 0.0
2016-Feb-06 10:32N 51°58' E 004°03'0 0.0
2016-Feb-06 09:32N 51°58' E 004°03'0 0.0
2016-Feb-06 08:32N 51°58' E 004°03'1 1.0
2016-Feb-06 07:33N 51°58' E 004°05'10 9.6
2016-Feb-06 06:33N 52°02' E 003°51'1211.6
2016-Feb-06 05:33N 51°58' E 003°33'2118.3
2016-Feb-06 04:24N 51°53' E 002°59'1820.6
2016-Feb-06 03:33N 51°53' E 002°31'2121.0
2016-Feb-06 02:33N 51°50' E 001°58'1514.9
2016-Feb-06 01:33N 51°52' E 001°34'1010.2
2016-Feb-06 00:34N 51°56' E 001°19'0 0.4
2016-Feb-05 23:34N 51°57' E 001°19'0 0.0
2016-Feb-05 22:31N 51°57' E 001°19'0 0.0
2016-Feb-05 21:31N 51°57' E 001°19'0 0.0
2016-Feb-05 20:31N 51°57' E 001°19'0 0.0
2016-Feb-05 19:31N 51°57' E 001°19'0 0.0
2016-Feb-05 18:31N 51°57' E 001°19'0 0.0
2016-Feb-05 17:31N 51°57' E 001°19'0 0.0
2016-Feb-05 16:31N 51°57' E 001°19'0 0.0
2016-Feb-05 15:31N 51°57' E 001°19'0 0.0
2016-Feb-05 14:31N 51°57' E 001°19'0 0.0
2016-Feb-05 13:31N 51°57' E 001°19'0 0.0
2016-Feb-05 12:31N 51°57' E 001°19'0 0.0
2016-Feb-05 11:31N 51°57' E 001°19'0 0.0
2016-Feb-05 10:31N 51°57' E 001°19'0 0.0
2016-Feb-05 09:31N 51°57' E 001°19'0 0.0
2016-Feb-05 08:31N 51°57' E 001°19'0 0.0
2016-Feb-05 07:31N 51°57' E 001°19'0 0.0
2016-Feb-05 06:31N 51°57' E 001°19'0 0.0
2016-Feb-05 05:31N 51°57' E 001°19'0 0.0
2016-Feb-05 04:31N 51°57' E 001°19'0 0.0
2016-Feb-05 03:31N 51°57' E 001°19'0 0.0
2016-Feb-05 02:31N 51°57' E 001°19'0 0.0
2016-Feb-05 01:31N 51°57' E 001°19'0 0.0
2016-Feb-05 00:31N 51°57' E 001°19'0 0.0
2016-Feb-04 23:31N 51°57' E 001°19'0 0.0
2016-Feb-04 22:31N 51°57' E 001°19'0 0.0
2016-Feb-04 21:31N 51°57' E 001°19'0 0.0
2016-Feb-04 20:31N 51°57' E 001°19'0 0.0
2016-Feb-04 19:31N 51°57' E 001°19'0 0.0
2016-Feb-04 18:31N 51°57' E 001°19'0 0.0
2016-Feb-04 17:31N 51°57' E 001°19'0 0.0
2016-Feb-04 16:31N 51°57' E 001°19'0 0.0
2016-Feb-04 15:31N 51°57' E 001°19'0 0.0
2016-Feb-04 14:31N 51°57' E 001°19'0 0.0
2016-Feb-04 13:31N 51°57' E 001°19'0 0.0
2016-Feb-04 12:31N 51°57' E 001°19'0 0.0
2016-Feb-04 11:31N 51°57' E 001°19'0 0.0
2016-Feb-04 10:31N 51°57' E 001°19'0 0.2
2016-Feb-04 09:31N 51°57' E 001°19'0 0.0
2016-Feb-04 08:31N 51°57' E 001°19'0 0.0
2016-Feb-04 07:31N 51°57' E 001°19'0 0.0
2016-Feb-04 06:31N 51°57' E 001°19'0 0.0
2016-Feb-04 05:31N 51°57' E 001°19'0 0.0
2016-Feb-04 04:31N 51°57' E 001°19'  

Dump ship's entire track history